createdAt,value
2018-11-23T00:02:03.477Z,15.47
2018-11-23T00:04:33.228Z,16.23
2018-11-23T00:07:02.904Z,15.63
2018-11-23T00:09:39.026Z,17.10
2018-11-23T00:12:08.768Z,17.17
2018-11-23T00:14:38.783Z,15.60
2018-11-23T00:17:08.570Z,15.47
2018-11-23T00:19:38.376Z,16.23
2018-11-23T00:22:08.547Z,15.60
2018-11-23T00:24:38.259Z,16.33
2018-11-23T00:27:08.025Z,16.10
2018-11-23T00:29:39.796Z,14.57
2018-11-23T00:32:09.479Z,15.63
2018-11-23T00:34:39.323Z,15.60
2018-11-23T00:37:09.107Z,15.93
2018-11-23T00:39:38.787Z,15.17
2018-11-23T00:42:08.587Z,16.77
2018-11-23T00:44:38.153Z,15.03
2018-11-23T00:47:07.890Z,16.07
2018-11-23T00:49:37.707Z,14.83
2018-11-23T00:52:07.899Z,14.70
2018-11-23T00:54:37.568Z,16.00
2018-11-23T00:57:07.336Z,15.57
2018-11-23T00:59:37.666Z,15.00
2018-11-23T01:02:08.757Z,14.53
2018-11-23T01:04:39.191Z,14.97
2018-11-23T01:07:31.941Z,14.27
2018-11-23T01:10:01.756Z,15.53
2018-11-23T01:12:31.459Z,15.63
2018-11-23T01:15:01.213Z,16.30
2018-11-23T01:17:30.901Z,14.60
2018-11-23T01:20:00.563Z,15.97
2018-11-23T01:22:30.368Z,14.30
2018-11-23T01:25:00.308Z,15.40
2018-11-23T01:27:30.038Z,13.97
2018-11-23T01:29:59.723Z,15.23
2018-11-23T01:32:29.440Z,14.13
2018-11-23T01:34:59.116Z,13.13
2018-11-23T01:37:28.809Z,13.93
2018-11-23T01:39:58.535Z,12.70
2018-11-23T01:42:28.287Z,13.50
2018-11-23T01:44:58.069Z,15.07
2018-11-23T01:47:27.718Z,13.20
2018-11-23T01:49:57.391Z,14.57
2018-11-23T01:52:27.180Z,12.33
2018-11-23T01:55:16.318Z,12.57
2018-11-23T01:57:46.791Z,13.73
2018-11-23T02:00:27.835Z,14.03
2018-11-23T02:02:57.979Z,11.80
2018-11-23T02:05:27.729Z,11.83
2018-11-23T02:07:57.504Z,12.13
2018-11-23T02:10:27.277Z,12.40
2018-11-23T02:12:57.047Z,12.67
2018-11-23T02:15:26.743Z,12.13
2018-11-23T02:17:56.507Z,13.30
2018-11-23T02:20:26.200Z,13.00
2018-11-23T02:22:55.959Z,11.77
2018-11-23T02:25:25.714Z,14.07
2018-11-23T02:27:55.755Z,13.13
2018-11-23T02:30:26.626Z,13.43
2018-11-23T02:32:56.296Z,12.80
2018-11-23T02:35:25.984Z,13.53
2018-11-23T02:37:55.664Z,14.13
2018-11-23T02:40:25.344Z,12.33
2018-11-23T02:42:55.116Z,12.33
2018-11-23T02:45:24.919Z,13.40
2018-11-23T02:47:54.675Z,13.30
2018-11-23T02:50:24.377Z,13.67
2018-11-23T02:52:54.159Z,12.70
2018-11-23T02:55:23.875Z,13.30
2018-11-23T02:57:53.641Z,13.80
2018-11-23T03:00:23.834Z,13.53
2018-11-23T03:02:53.535Z,12.90
2018-11-23T03:05:24.283Z,12.17
2018-11-23T03:07:53.972Z,12.50
2018-11-23T03:10:23.678Z,13.03
2018-11-23T03:13:22.296Z,12.13
2018-11-23T03:15:52.040Z,11.50
2018-11-23T03:18:21.709Z,12.93
2018-11-23T03:20:51.473Z,12.33
2018-11-23T03:23:21.236Z,12.50
2018-11-23T03:25:50.931Z,11.47
2018-11-23T03:28:20.701Z,13.97
2018-11-23T03:30:50.460Z,13.03
2018-11-23T03:33:20.553Z,13.50
2018-11-23T03:35:50.271Z,12.10
2018-11-23T03:38:19.992Z,13.13
2018-11-23T03:40:50.264Z,12.10
2018-11-23T03:43:20.288Z,12.47
2018-11-23T03:45:49.947Z,13.40
2018-11-23T03:48:19.648Z,12.93
2018-11-23T03:50:49.375Z,13.63
2018-11-23T03:53:18.988Z,12.63
2018-11-23T03:55:48.696Z,12.53
2018-11-23T03:58:18.356Z,13.23
2018-11-23T04:01:00.236Z,11.60
2018-11-23T04:03:30.320Z,10.97
2018-11-23T04:05:59.983Z,11.10
2018-11-23T04:08:29.779Z,10.97
2018-11-23T04:10:59.484Z,11.50
2018-11-23T04:13:29.096Z,11.47
2018-11-23T04:15:58.911Z,10.87
2018-11-23T04:18:28.552Z,11.57
2018-11-23T04:21:22.352Z,10.80
2018-11-23T04:23:51.986Z,11.20
2018-11-23T04:26:24.808Z,11.23
2018-11-23T04:28:51.403Z,11.90
2018-11-23T04:31:21.134Z,10.67
2018-11-23T04:33:50.871Z,10.80
2018-11-23T04:36:20.563Z,11.30
2018-11-23T04:38:50.280Z,11.70
2018-11-23T04:41:20.017Z,11.93
2018-11-23T04:43:49.991Z,10.97
2018-11-23T04:46:19.736Z,11.57
2018-11-23T04:48:49.455Z,11.60
2018-11-23T04:51:19.187Z,11.80
2018-11-23T04:53:49.140Z,11.57
2018-11-23T04:56:30.359Z,11.73
2018-11-23T04:59:00.296Z,11.50
2018-11-23T05:01:30.012Z,10.90
2018-11-23T05:04:05.589Z,10.73
2018-11-23T05:06:35.651Z,11.03
2018-11-23T05:09:07.591Z,11.70
2018-11-23T05:11:37.272Z,10.47
2018-11-23T05:14:07.035Z,11.07
2018-11-23T05:16:36.768Z,11.40
2018-11-23T05:19:06.835Z,11.13
2018-11-23T05:21:36.569Z,11.67
2018-11-23T05:24:06.532Z,10.60
2018-11-23T05:26:36.191Z,11.33
2018-11-23T05:29:06.194Z,10.90
2018-11-23T05:31:35.868Z,10.87
2018-11-23T05:34:05.763Z,10.77
2018-11-23T05:36:40.072Z,10.67
2018-11-23T05:39:10.592Z,10.83
2018-11-23T05:41:41.287Z,11.07
2018-11-23T05:44:14.785Z,11.00
2018-11-23T05:46:44.436Z,10.73
2018-11-23T05:49:14.057Z,11.70
2018-11-23T05:51:43.853Z,10.80
2018-11-23T05:54:13.608Z,11.07
2018-11-23T05:56:43.383Z,10.83
2018-11-23T05:59:13.043Z,11.27
2018-11-23T06:01:42.894Z,11.33
2018-11-23T06:04:43.012Z,12.03
2018-11-23T06:07:13.091Z,11.70
2018-11-23T06:09:42.779Z,11.60
2018-11-23T06:12:12.447Z,12.07
2018-11-23T06:14:43.263Z,11.90
2018-11-23T06:17:13.047Z,12.03
2018-11-23T06:19:43.490Z,11.83
2018-11-23T06:22:31.419Z,12.50
2018-11-23T06:25:01.320Z,12.40
2018-11-23T06:27:31.079Z,12.63
2018-11-23T06:30:06.796Z,11.77
2018-11-23T06:32:53.273Z,11.77
2018-11-23T06:35:23.597Z,12.63
2018-11-23T06:37:57.932Z,11.47
2018-11-23T06:40:27.667Z,12.00
2018-11-23T06:42:57.684Z,11.50
2018-11-23T06:45:27.542Z,10.53
2018-11-23T06:47:57.240Z,10.47
2018-11-23T06:50:26.960Z,10.77
2018-11-23T06:52:56.623Z,10.43
2018-11-23T06:55:27.477Z,11.50
2018-11-23T06:57:57.079Z,10.93
2018-11-23T07:00:26.797Z,10.97
2018-11-23T07:02:59.223Z,10.20
2018-11-23T07:05:26.287Z,12.20
2018-11-23T07:07:56.093Z,10.93
2018-11-23T07:10:25.765Z,10.50
2018-11-23T07:12:55.544Z,11.63
2018-11-23T07:15:25.311Z,10.93
2018-11-23T07:17:55.903Z,9.23
2018-11-23T07:20:25.603Z,10.23
2018-11-23T07:22:55.318Z,10.27
2018-11-23T07:25:25.014Z,10.27
2018-11-23T07:27:54.696Z,11.10
2018-11-23T07:30:26.084Z,10.67
2018-11-23T07:32:56.013Z,10.07
2018-11-23T07:35:25.684Z,9.70
2018-11-23T07:37:55.536Z,10.97
2018-11-23T07:40:44.120Z,9.37
2018-11-23T07:43:19.055Z,10.10
2018-11-23T07:45:48.714Z,11.03
2018-11-23T07:48:18.416Z,9.33
2018-11-23T07:50:48.147Z,10.87
2018-11-23T07:53:17.965Z,9.73
2018-11-23T07:55:47.632Z,10.13
2018-11-23T07:58:17.398Z,11.23
2018-11-23T08:00:47.051Z,11.07
2018-11-23T08:03:16.753Z,10.83
2018-11-23T08:05:46.452Z,11.33
2018-11-23T08:08:16.205Z,11.40
2018-11-23T08:10:44.943Z,10.67
2018-11-23T08:13:14.628Z,10.23
2018-11-23T08:15:44.349Z,10.63
2018-11-23T08:18:14.073Z,10.87
2018-11-23T08:20:43.751Z,11.70
2018-11-23T08:23:13.409Z,11.73
2018-11-23T08:25:43.780Z,9.80
2018-11-23T08:28:13.470Z,10.80
2018-11-23T08:30:43.175Z,11.53
2018-11-23T08:33:12.871Z,11.13
2018-11-23T08:35:42.592Z,11.10
2018-11-23T08:38:12.374Z,10.83
2018-11-23T08:40:42.044Z,10.53
2018-11-23T08:43:23.670Z,10.20
2018-11-23T08:45:53.456Z,10.43
2018-11-23T08:48:23.361Z,10.13
2018-11-23T08:50:53.100Z,9.73
2018-11-23T08:53:30.996Z,10.10
2018-11-23T08:56:00.700Z,9.53
2018-11-23T08:58:30.347Z,10.43
2018-11-23T09:01:00.128Z,10.23
2018-11-23T09:03:29.828Z,9.90
2018-11-23T09:05:59.572Z,10.07
2018-11-23T09:08:29.267Z,9.50
2018-11-23T09:10:58.931Z,8.87
2018-11-23T09:13:29.333Z,10.00
2018-11-23T09:15:58.968Z,8.77
2018-11-23T09:18:28.723Z,9.30
2018-11-23T09:20:59.097Z,9.33
2018-11-23T09:23:28.808Z,9.37
2018-11-23T09:25:58.524Z,10.23
2018-11-23T09:28:28.228Z,10.17
2018-11-23T09:30:57.991Z,9.83
2018-11-23T09:33:27.767Z,9.10
2018-11-23T09:35:57.455Z,8.87
2018-11-23T09:38:27.176Z,9.93
2018-11-23T09:40:57.370Z,9.03
2018-11-23T09:43:27.037Z,10.77
2018-11-23T09:45:56.650Z,8.47
2018-11-23T09:48:26.443Z,10.10
2018-11-23T09:50:56.035Z,12.17
2018-11-23T09:53:26.392Z,9.03
2018-11-23T09:55:56.224Z,9.13
2018-11-23T09:58:26.344Z,9.07
2018-11-23T10:00:56.073Z,8.57
2018-11-23T10:03:25.742Z,9.53
2018-11-23T10:05:55.456Z,9.33
2018-11-23T10:08:25.210Z,8.90
2018-11-23T10:10:54.944Z,8.83
2018-11-23T10:13:24.743Z,8.50
2018-11-23T10:18:56.667Z,9.33
2018-11-23T10:21:26.483Z,8.50
2018-11-23T10:23:56.232Z,8.20
2018-11-23T10:26:25.907Z,9.20
2018-11-23T10:28:55.664Z,9.63
2018-11-23T10:31:25.432Z,9.17
2018-11-23T10:33:55.149Z,9.23
2018-11-23T10:36:24.824Z,9.40
2018-11-23T10:38:54.501Z,9.20
2018-11-23T10:41:24.343Z,8.53
2018-11-23T10:43:54.010Z,10.07
2018-11-23T10:46:24.331Z,8.57
2018-11-23T10:48:54.168Z,8.53
2018-11-23T10:51:23.820Z,9.27
2018-11-23T10:53:53.568Z,7.90
2018-11-23T10:56:23.279Z,8.80
2018-11-23T10:58:52.999Z,9.10
2018-11-23T11:01:27.774Z,9.03
2018-11-23T11:04:00.989Z,8.27
2018-11-23T11:06:35.947Z,8.73
2018-11-23T11:09:08.472Z,8.47
2018-11-23T11:11:38.409Z,8.23
2018-11-23T11:14:08.712Z,8.80
2018-11-23T11:16:38.362Z,9.10
2018-11-23T11:19:08.384Z,9.20
2018-11-23T11:21:38.138Z,8.80
2018-11-23T11:24:07.830Z,9.07
2018-11-23T11:26:37.564Z,8.37
2018-11-23T11:29:07.616Z,8.37
2018-11-23T11:31:37.339Z,8.33
2018-11-23T11:34:07.390Z,7.63
2018-11-23T11:36:37.087Z,7.83
2018-11-23T11:39:11.171Z,8.30
2018-11-23T11:41:41.132Z,7.90
2018-11-23T11:44:10.790Z,9.43
2018-11-23T11:46:40.448Z,8.03
2018-11-23T11:49:10.111Z,7.07
2018-11-23T11:51:40.060Z,14.63
2018-11-23T11:54:09.814Z,8.60
2018-11-23T11:56:39.495Z,8.03
2018-11-23T11:59:09.222Z,7.77
2018-11-23T12:01:38.996Z,7.53
2018-11-23T12:04:08.680Z,7.90
2018-11-23T12:06:38.488Z,7.83
2018-11-23T12:09:11.503Z,8.70
2018-11-23T12:11:41.515Z,7.33
2018-11-23T12:14:11.214Z,7.90
2018-11-23T12:16:40.800Z,7.53
2018-11-23T12:19:10.443Z,8.10
2018-11-23T12:21:40.140Z,8.07
2018-11-23T12:24:09.911Z,9.77
2018-11-23T12:26:41.919Z,9.10
2018-11-23T12:29:11.754Z,7.63
2018-11-23T12:31:41.669Z,8.40
2018-11-23T12:34:11.362Z,9.20
2018-11-23T12:36:41.278Z,9.03
2018-11-23T12:39:27.639Z,8.77
2018-11-23T12:41:57.536Z,8.53
2018-11-23T12:44:44.323Z,9.60
2018-11-23T12:47:14.045Z,8.77
2018-11-23T12:49:43.787Z,9.03
2018-11-23T12:52:13.476Z,9.33
2018-11-23T12:54:44.300Z,9.00
2018-11-23T12:57:14.320Z,9.47
2018-11-23T12:59:47.552Z,9.87
2018-11-23T13:02:46.069Z,9.70
2018-11-23T13:05:16.044Z,10.20
2018-11-23T13:07:45.705Z,10.33
2018-11-23T13:10:15.311Z,10.30
2018-11-23T13:12:50.717Z,9.70
2018-11-23T13:15:14.968Z,9.87
2018-11-23T13:17:44.631Z,10.50
2018-11-23T13:20:15.896Z,10.13
2018-11-23T13:22:47.731Z,8.70
2018-11-23T13:25:21.461Z,9.33
2018-11-23T13:27:51.715Z,9.20
2018-11-23T13:30:28.492Z,10.80
2018-11-23T13:32:58.374Z,10.40
2018-11-23T13:35:28.556Z,9.00
2018-11-23T13:40:58.371Z,8.57
2018-11-23T13:43:28.500Z,8.87
2018-11-23T13:45:58.436Z,9.37
2018-11-23T13:48:28.560Z,9.87
2018-11-23T13:50:58.635Z,9.13
2018-11-23T13:53:29.610Z,9.97
2018-11-23T13:56:01.450Z,9.20
2018-11-23T13:58:58.194Z,9.23
2018-11-23T14:01:27.957Z,9.20
2018-11-23T14:07:13.259Z,9.73
2018-11-23T14:09:42.967Z,10.43
2018-11-23T14:12:12.899Z,10.70
2018-11-23T14:14:42.635Z,9.27
2018-11-23T14:17:29.867Z,9.07
2018-11-23T14:20:00.075Z,9.47
2018-11-23T14:22:44.147Z,9.57
2018-11-23T14:25:17.384Z,9.27
2018-11-23T14:27:47.662Z,10.10
2018-11-23T14:30:20.280Z,9.27
2018-11-23T14:32:50.389Z,8.67
2018-11-23T14:35:22.311Z,9.17
2018-11-23T14:37:53.587Z,9.67
2018-11-23T14:40:23.356Z,9.67
2018-11-23T14:42:53.645Z,9.70
2018-11-23T14:45:29.301Z,9.33
2018-11-23T14:48:01.549Z,9.93
2018-11-23T14:50:49.932Z,9.73
2018-11-23T14:53:20.064Z,9.60
2018-11-23T14:55:50.368Z,11.50
2018-11-23T14:58:20.223Z,11.20
2018-11-23T15:00:57.576Z,10.67
2018-11-23T15:03:27.811Z,10.07
2018-11-23T15:05:57.942Z,9.23
2018-11-23T15:08:27.708Z,9.63
2018-11-23T15:10:57.555Z,10.10
2018-11-23T15:13:34.364Z,10.60
2018-11-23T15:16:07.133Z,8.80
2018-11-23T15:18:41.587Z,9.23
2018-11-23T15:21:11.358Z,9.40
2018-11-23T15:23:41.853Z,9.13
2018-11-23T15:26:11.672Z,8.87
2018-11-23T15:28:42.416Z,9.63
2018-11-23T15:31:31.165Z,9.90
2018-11-23T15:34:01.039Z,9.07
2018-11-23T15:36:30.800Z,9.20
2018-11-23T15:39:00.659Z,8.90
2018-11-23T15:41:31.231Z,9.13
2018-11-23T15:44:01.414Z,9.00
2018-11-23T15:46:31.371Z,9.00
2018-11-23T15:49:15.893Z,8.60
2018-11-23T15:51:45.757Z,10.13
2018-11-23T15:54:15.529Z,10.93
2018-11-23T15:56:46.040Z,13.07
2018-11-23T15:59:15.875Z,9.57
2018-11-23T16:01:45.927Z,9.40
2018-11-23T16:04:15.772Z,10.53
2018-11-23T16:06:49.083Z,9.30
2018-11-23T16:09:25.594Z,10.27
2018-11-23T16:11:55.905Z,8.63
2018-11-23T16:14:32.835Z,9.50
2018-11-23T16:17:23.247Z,9.43
2018-11-23T16:19:53.335Z,9.00
2018-11-23T16:22:23.028Z,8.87
2018-11-23T16:24:53.288Z,8.57
2018-11-23T16:27:23.223Z,8.60
2018-11-23T16:29:56.773Z,8.47
2018-11-23T16:32:45.191Z,9.20
2018-11-23T16:35:26.219Z,9.17
2018-11-23T16:37:56.949Z,9.20
2018-11-23T16:40:28.654Z,10.23
2018-11-23T16:43:01.107Z,8.20
2018-11-23T16:45:33.180Z,8.60
2018-11-23T16:48:04.322Z,9.57
2018-11-23T16:50:39.540Z,8.30
2018-11-23T16:53:14.299Z,7.90
2018-11-23T16:55:45.115Z,7.90
2018-11-23T16:58:15.129Z,7.83
2018-11-23T17:00:46.513Z,8.33
2018-11-23T17:03:25.919Z,8.10
2018-11-23T17:05:57.045Z,9.03
2018-11-23T17:08:45.012Z,9.43
2018-11-23T17:11:14.919Z,9.40
2018-11-23T17:13:45.214Z,13.13
2018-11-23T17:16:32.290Z,12.50
2018-11-23T17:19:07.138Z,9.00
2018-11-23T17:21:43.772Z,7.80
2018-11-23T17:24:13.514Z,7.97
2018-11-23T17:26:43.380Z,8.33
2018-11-23T17:29:13.191Z,8.43
2018-11-23T17:31:43.063Z,8.37
2018-11-23T17:34:12.932Z,7.90
2018-11-23T17:36:42.575Z,8.20
2018-11-23T17:39:12.327Z,8.60
2018-11-23T17:41:42.248Z,8.30
2018-11-23T17:44:11.955Z,7.70
2018-11-23T17:46:42.612Z,7.93
2018-11-23T17:49:12.444Z,7.77
2018-11-23T17:51:42.176Z,7.67
2018-11-23T17:54:11.819Z,8.07
2018-11-23T17:56:41.548Z,8.17
2018-11-23T17:59:11.212Z,8.20
2018-11-23T18:01:41.005Z,8.57
2018-11-23T18:04:26.608Z,8.10
2018-11-23T18:06:56.439Z,7.87
2018-11-23T18:09:27.251Z,9.10
2018-11-23T18:11:57.093Z,9.00
2018-11-23T18:14:26.752Z,8.37
2018-11-23T18:16:56.619Z,7.77
2018-11-23T18:19:26.522Z,8.07
2018-11-23T18:21:56.857Z,7.63
2018-11-23T18:24:26.669Z,7.93
2018-11-23T18:26:56.571Z,9.90
2018-11-23T18:29:26.231Z,10.67
2018-11-23T18:31:55.991Z,9.73
2018-11-23T18:34:25.678Z,10.30
2018-11-23T18:36:56.276Z,11.00
2018-11-23T18:39:26.067Z,10.90
2018-11-23T18:41:55.837Z,11.97
2018-11-23T18:44:25.596Z,11.00
2018-11-23T18:46:55.223Z,14.03
2018-11-23T18:49:25.296Z,11.43
2018-11-23T18:51:55.406Z,11.27
2018-11-23T18:54:25.368Z,12.50
2018-11-23T18:56:55.257Z,14.43
2018-11-23T18:59:24.988Z,12.90
2018-11-23T19:01:54.824Z,11.20
2018-11-23T19:04:26.683Z,10.80
2018-11-23T19:06:56.405Z,10.77
2018-11-23T19:09:26.097Z,12.00
2018-11-23T19:11:55.889Z,12.83
2018-11-23T19:14:25.611Z,11.73
2018-11-23T19:16:58.898Z,13.93
2018-11-23T19:19:28.607Z,11.97
2018-11-23T19:21:59.042Z,12.43
2018-11-23T19:24:29.195Z,13.60
2018-11-23T19:27:13.849Z,14.07
2018-11-23T19:29:43.579Z,11.77
2018-11-23T19:32:20.608Z,12.20
2018-11-23T19:34:50.491Z,12.13
2018-11-23T19:37:21.417Z,11.33
2018-11-23T19:39:51.213Z,11.47
2018-11-23T19:42:22.636Z,9.43
2018-11-23T19:44:55.686Z,9.57
2018-11-23T19:47:33.532Z,9.13
2018-11-23T19:50:03.382Z,8.97
2018-11-23T19:52:37.386Z,8.60
2018-11-23T19:55:09.043Z,8.77
2018-11-23T19:57:43.112Z,7.63
2018-11-23T20:00:18.758Z,8.03
2018-11-23T20:02:48.646Z,7.60
2018-11-23T20:05:19.221Z,7.33
2018-11-23T20:07:51.362Z,7.90
2018-11-23T20:10:22.903Z,8.73
2018-11-23T20:13:03.128Z,7.60
2018-11-23T20:15:33.357Z,9.07
2018-11-23T20:18:03.238Z,8.10
2018-11-23T20:20:39.012Z,7.87
2018-11-23T20:23:10.040Z,7.33
2018-11-23T20:25:39.960Z,7.53
2018-11-23T20:28:10.598Z,7.93
2018-11-23T20:30:42.598Z,7.13
2018-11-23T20:33:16.982Z,7.00
2018-11-23T20:35:50.995Z,6.83
2018-11-23T20:38:29.114Z,6.87
2018-11-23T20:41:04.775Z,7.70
2018-11-23T20:43:48.449Z,7.80
2018-11-23T20:46:22.541Z,8.40
2018-11-23T20:48:52.668Z,7.87
2018-11-23T20:51:22.409Z,7.97
2018-11-23T20:53:53.351Z,8.37
2018-11-23T20:56:23.280Z,7.90
2018-11-23T20:58:52.991Z,7.20
2018-11-23T21:01:26.610Z,6.90
2018-11-23T21:03:56.712Z,7.27
2018-11-23T21:06:37.565Z,6.93
2018-11-23T21:09:10.769Z,7.00
2018-11-23T21:11:40.423Z,7.23
2018-11-23T21:14:10.447Z,8.90
2018-11-23T21:16:40.468Z,18.40
2018-11-23T21:19:10.171Z,10.27
2018-11-23T21:21:46.804Z,8.03
2018-11-23T21:24:20.376Z,7.33
2018-11-23T21:27:07.917Z,8.13
2018-11-23T21:29:40.786Z,6.80
2018-11-23T21:32:12.572Z,7.03
2018-11-23T21:34:55.078Z,7.77
2018-11-23T21:37:26.885Z,5.87
2018-11-23T21:39:58.210Z,6.50
2018-11-23T21:42:28.917Z,6.17
2018-11-23T21:44:58.944Z,6.33
2018-11-23T21:47:28.866Z,6.20
2018-11-23T21:49:58.884Z,6.33
2018-11-23T21:52:28.513Z,6.20
2018-11-23T21:55:00.054Z,6.77
2018-11-23T21:57:30.909Z,6.60
2018-11-23T22:00:02.845Z,6.70
2018-11-23T22:02:32.483Z,7.00
2018-11-23T22:05:04.245Z,6.60
2018-11-23T22:07:34.015Z,6.70
2018-11-23T22:10:10.664Z,6.33
2018-11-23T22:12:46.967Z,6.80
2018-11-23T22:15:37.892Z,6.20
2018-11-23T22:18:08.268Z,6.27
2018-11-23T22:20:38.032Z,5.80
2018-11-23T22:23:09.588Z,6.87
2018-11-23T22:26:01.966Z,8.10
2018-11-23T22:28:31.763Z,7.70
2018-11-23T22:31:08.354Z,8.07
2018-11-23T22:33:44.806Z,7.50
2018-11-23T22:36:17.889Z,6.57
2018-11-23T22:38:47.860Z,6.90
2018-11-23T22:41:18.384Z,6.90
2018-11-23T22:43:48.139Z,9.30
2018-11-23T22:46:18.139Z,8.10
2018-11-23T22:48:51.705Z,8.10
2018-11-23T22:51:21.695Z,6.70
2018-11-23T22:54:07.413Z,7.20
2018-11-23T22:56:37.420Z,6.33
2018-11-23T22:59:07.724Z,7.27
2018-11-23T23:01:51.369Z,6.87
2018-11-23T23:04:21.110Z,10.00
2018-11-23T23:06:51.176Z,10.10
2018-11-23T23:09:22.298Z,7.63
2018-11-23T23:11:52.105Z,9.50
2018-11-23T23:14:23.151Z,7.47
2018-11-23T23:16:57.013Z,8.23
2018-11-23T23:19:29.114Z,6.73
2018-11-23T23:22:10.400Z,6.30
2018-11-23T23:24:40.462Z,7.23
2018-11-23T23:27:10.279Z,6.90
2018-11-23T23:29:40.199Z,6.97
2018-11-23T23:32:10.135Z,7.60
2018-11-23T23:34:39.870Z,8.03
2018-11-23T23:37:09.604Z,6.63
2018-11-23T23:39:39.422Z,7.07
2018-11-23T23:42:09.179Z,6.90
2018-11-23T23:44:39.489Z,6.43
2018-11-23T23:47:09.160Z,6.13
2018-11-23T23:49:38.955Z,6.20
2018-11-23T23:52:08.667Z,7.57
2018-11-23T23:54:41.012Z,8.00
2018-11-23T23:57:20.898Z,9.10
2018-11-23T23:59:52.267Z,7.57
